createdAt,value
2018-02-15T00:19:24.951Z,993.30
2018-02-15T00:23:34.428Z,993.39
2018-02-15T00:24:29.014Z,993.36
2018-02-15T06:07:43.059Z,991.32
2018-02-15T06:08:42.946Z,991.33
2018-02-15T06:09:43.017Z,991.35
2018-02-15T06:10:43.725Z,991.37
2018-02-15T06:11:43.033Z,991.36
2018-02-15T06:12:42.897Z,991.39
2018-02-15T06:13:42.881Z,991.34
2018-02-15T06:14:43.501Z,991.28
2018-02-15T06:15:42.833Z,991.21
2018-02-15T06:16:43.900Z,991.22
2018-02-15T06:17:43.293Z,991.24
2018-02-15T06:18:42.803Z,991.21
2018-02-15T06:19:43.865Z,991.22
2018-02-15T06:20:43.198Z,991.23
2018-02-15T06:21:42.300Z,991.21
2018-02-15T06:22:41.836Z,991.18
2018-02-15T06:23:41.862Z,991.17
2018-02-15T07:23:36.633Z,990.94
2018-02-15T10:01:51.234Z,990.59
2018-02-15T10:02:50.219Z,990.59
2018-02-15T10:03:49.666Z,990.57
2018-02-15T10:04:49.442Z,990.57
2018-02-15T10:05:49.424Z,990.48
2018-02-15T10:07:00.011Z,990.45
2018-02-15T10:08:43.493Z,990.55
2018-02-15T10:09:44.164Z,990.46
2018-02-15T10:10:43.411Z,990.48
2018-02-15T10:11:43.125Z,990.54
2018-02-15T10:12:43.563Z,990.54
2018-02-15T10:13:43.269Z,990.44
2018-02-15T10:14:43.386Z,990.44
2018-02-15T10:15:43.879Z,990.48
2018-02-15T10:16:43.385Z,990.49
2018-02-15T10:17:43.810Z,990.46
2018-02-15T10:18:43.807Z,990.44
2018-02-15T10:36:05.671Z,990.22
2018-02-15T11:21:45.427Z,989.92
2018-02-15T11:22:45.409Z,989.87
2018-02-15T14:11:47.133Z,989.82
2018-02-15T14:12:48.418Z,989.85
2018-02-15T14:13:48.004Z,989.85
2018-02-15T14:14:46.834Z,989.86
2018-02-15T14:15:46.628Z,989.85
2018-02-15T14:16:47.034Z,989.84
2018-02-15T14:17:46.732Z,989.82
2018-02-15T14:18:46.600Z,989.75
2018-02-15T14:19:46.280Z,989.71
2018-02-15T14:20:46.315Z,989.69
2018-02-15T14:21:46.206Z,989.71
2018-02-15T14:22:46.243Z,989.78
2018-02-15T14:23:46.624Z,989.74
2018-02-15T15:16:47.197Z,989.79
2018-02-15T15:31:36.309Z,990.08
2018-02-15T15:32:36.968Z,990.10
2018-02-15T15:44:23.400Z,989.97
2018-02-15T15:45:22.163Z,989.99
2018-02-15T15:46:21.713Z,990.02
2018-02-15T15:47:22.182Z,990.06
2018-02-15T15:48:21.562Z,990.10
2018-02-15T16:06:40.667Z,990.25
2018-02-15T16:07:41.286Z,990.30
2018-02-15T16:08:39.545Z,990.26
2018-02-15T16:09:39.569Z,990.26
2018-02-15T16:10:40.034Z,990.27
2018-02-15T16:11:39.997Z,990.23
2018-02-15T16:12:39.870Z,990.25
2018-02-15T16:13:39.436Z,990.21
2018-02-15T16:14:40.438Z,990.25
2018-02-15T16:15:39.880Z,990.28
2018-02-15T16:16:40.800Z,990.25
2018-02-15T16:17:39.848Z,990.32
2018-02-15T16:18:40.683Z,990.31
2018-02-15T16:19:40.194Z,990.27
2018-02-15T16:20:42.910Z,990.36
2018-02-15T16:21:41.984Z,990.40
2018-02-15T16:49:55.189Z,990.64
2018-02-15T16:52:36.394Z,990.66
2018-02-15T16:54:37.048Z,990.74
2018-02-15T16:55:34.576Z,990.71
2018-02-15T16:56:35.780Z,990.71
2018-02-15T16:57:35.781Z,990.77
2018-02-15T16:58:36.117Z,990.76
2018-02-15T16:59:35.033Z,990.74
2018-02-15T17:00:34.417Z,990.77
2018-02-15T17:01:34.412Z,990.84
2018-02-15T17:02:36.452Z,990.81
2018-02-15T17:03:36.931Z,990.80
2018-02-15T17:04:35.371Z,990.77
2018-02-15T17:06:36.248Z,990.80
2018-02-15T17:07:41.041Z,990.80
2018-02-15T17:10:08.278Z,990.88
2018-02-15T17:11:00.713Z,990.85
2018-02-15T17:11:59.073Z,990.86
2018-02-15T17:13:58.484Z,990.90
2018-02-15T17:14:58.642Z,990.88
2018-02-15T17:15:59.770Z,990.93
2018-02-15T17:16:58.119Z,990.92
2018-02-15T17:17:58.817Z,990.86
2018-02-15T17:18:58.468Z,990.91
2018-02-15T17:19:58.987Z,990.94
2018-02-15T17:20:58.432Z,990.92
2018-02-15T17:22:00.343Z,990.93
2018-02-15T17:22:59.456Z,990.96
2018-02-15T17:23:58.190Z,990.96
2018-02-15T17:24:57.416Z,990.96
2018-02-15T17:25:57.365Z,990.94
2018-02-15T17:26:57.408Z,990.95
2018-02-15T17:27:57.289Z,990.93
2018-02-15T17:28:57.253Z,990.85
2018-02-15T17:29:57.249Z,990.84
2018-02-15T17:30:57.913Z,990.84
2018-02-15T17:31:57.193Z,990.92
2018-02-15T17:32:57.170Z,990.92
2018-02-15T17:33:57.173Z,990.97
2018-02-15T17:34:57.246Z,990.94
2018-02-15T17:35:57.117Z,990.96
2018-02-15T17:36:57.110Z,990.97
2018-02-15T17:37:57.069Z,991.00
2018-02-15T17:38:57.170Z,991.00
2018-02-15T17:39:57.053Z,990.99
2018-02-15T17:40:57.040Z,991.02
2018-02-15T17:41:56.988Z,991.07
2018-02-15T17:42:57.022Z,991.00
2018-02-15T17:43:56.963Z,991.03
2018-02-15T17:44:56.907Z,991.04
2018-02-15T17:45:56.884Z,991.02
2018-02-15T17:46:56.822Z,991.02
2018-02-15T17:47:56.796Z,991.08
2018-02-15T17:48:56.756Z,991.13
2018-02-15T17:49:56.858Z,991.20
2018-02-15T17:50:56.698Z,991.23
2018-02-15T17:51:56.751Z,991.29
2018-02-15T17:52:56.772Z,991.27
2018-02-15T17:53:56.689Z,991.32
2018-02-15T17:54:56.624Z,991.35
2018-02-15T17:55:57.063Z,991.39
2018-02-15T17:56:56.595Z,991.46
2018-02-15T17:57:56.944Z,991.45
2018-02-15T17:58:56.537Z,991.48
2018-02-15T18:01:52.975Z,991.52
2018-02-15T18:26:10.257Z,991.56
2018-02-15T18:35:19.257Z,991.68
2018-02-15T18:35:57.705Z,991.67
2018-02-15T18:36:57.765Z,991.69
2018-02-15T20:08:39.612Z,991.96
2018-02-15T20:31:28.128Z,992.08
2018-02-15T20:32:18.140Z,992.08
2018-02-15T20:33:18.866Z,992.08
2018-02-15T20:34:18.053Z,992.09
2018-02-15T20:35:19.046Z,992.04
2018-02-15T20:36:18.628Z,992.03
2018-02-15T20:37:17.845Z,992.05
2018-02-15T20:38:17.788Z,992.09
2018-02-15T20:39:17.778Z,992.06
2018-02-15T20:40:17.757Z,992.05
2018-02-15T20:41:17.760Z,992.03
2018-02-15T20:42:17.691Z,992.05
2018-02-15T20:43:17.710Z,992.09
2018-02-15T20:44:17.646Z,992.06
2018-02-15T20:45:17.691Z,992.03
2018-02-15T20:46:17.599Z,991.94
2018-02-15T20:47:17.614Z,991.99
2018-02-15T20:48:17.570Z,992.01
2018-02-15T20:49:17.526Z,992.01
2018-02-15T20:50:17.506Z,992.03
2018-02-15T20:51:17.448Z,992.04
2018-02-15T20:52:17.443Z,992.12
2018-02-15T20:53:17.425Z,992.14
2018-02-15T20:54:17.417Z,992.16
2018-02-15T20:55:17.442Z,992.13
2018-02-15T20:56:17.379Z,992.15
2018-02-15T20:57:17.309Z,992.13
2018-02-15T20:58:17.319Z,992.19
2018-02-15T20:59:17.258Z,992.19
2018-02-15T21:00:17.767Z,992.21
2018-02-15T21:01:17.233Z,992.15
2018-02-15T21:02:17.227Z,992.03
2018-02-15T21:03:17.204Z,991.94
2018-02-15T21:04:17.187Z,992.01
2018-02-15T21:05:17.133Z,992.05
2018-02-15T21:06:17.132Z,992.05
2018-02-15T21:07:17.149Z,992.08
2018-02-15T21:08:17.238Z,992.07
2018-02-15T21:09:17.223Z,992.16
2018-02-15T21:10:17.086Z,992.15
2018-02-15T21:11:17.713Z,992.19
2018-02-15T21:12:17.019Z,992.19
2018-02-15T21:13:16.992Z,992.20
2018-02-15T21:14:17.079Z,992.28
